Time;durP1;ratioP1;P1;durP2;ratioP2;P2;SDS_P1;SDS_P2;PMS_P1;PMS_P2;Temp;Humidity;BMP_temperature;BMP_pressure;BME280_temperature;BME280_humidity;BME280_pressure;Samples;Min_cycle;Max_cycle;Signal;HPM_P1;HPM_P2
2023/03/18 00:04:45;;;;;;;10.07;2.63;;;;;;;12.86;80.62;100401.03;10292126;28;96819;-74
2023/03/18 00:09:49;;;;;;;8.80;2.88;;;;;;;12.92;80.41;100412.16;10324369;28;96695;-74
2023/03/18 00:14:52;;;;;;;12.02;2.42;;;;;;;12.86;80.62;100419.53;10332625;28;96866;-74
2023/03/18 00:20:04;;;;;;;13.65;3.78;;;;;;;12.96;80.54;100412.88;10331353;28;96573;-74
2023/03/18 00:25:09;;;;;;;12.68;3.92;;;;;;;13.04;80.40;100422.16;10331174;28;97090;-74
2023/03/18 00:30:13;;;;;;;11.95;3.03;;;;;;;12.94;81.08;100412.09;10331650;28;96898;-74
2023/03/18 00:35:18;;;;;;;11.13;3.93;;;;;;;12.91;80.96;100414.88;10331862;28;96555;-74
2023/03/18 00:40:28;;;;;;;11.73;3.35;;;;;;;12.89;81.26;100403.53;10327649;28;96743;-74
2023/03/18 00:45:32;;;;;;;11.98;2.78;;;;;;;12.80;81.53;100406.59;10290833;28;97324;-74
2023/03/18 00:50:37;;;;;;;14.77;3.28;;;;;;;12.88;81.10;100400.03;10304908;28;96714;-74
2023/03/18 00:55:40;;;;;;;;;;;;;;;12.89;81.24;100406.16;10337840;28;96933;-74
2023/03/18 01:00:44;;;;;;;15.27;3.50;;;;;;;12.90;80.50;100407.88;10306074;28;96996;-74
2023/03/18 01:05:50;;;;;;;12.23;3.13;;;;;;;12.91;80.95;100399.91;10297417;28;96606;-74
2023/03/18 01:10:53;;;;;;;14.70;3.22;;;;;;;12.96;81.02;100403.19;10333733;28;96756;-74
2023/03/18 01:15:56;;;;;;;14.75;2.70;;;;;;;12.96;80.56;100405.81;10320747;28;96633;-74
2023/03/18 01:21:01;;;;;;;14.07;3.42;;;;;;;12.98;80.56;100413.69;10296869;28;97294;-75
2023/03/18 01:26:05;;;;;;;12.02;2.72;;;;;;;13.02;80.69;100416.09;10296317;28;96938;-75
2023/03/18 01:31:09;;;;;;;12.47;2.83;;;;;;;12.98;80.26;100422.44;10297475;28;96966;-75
2023/03/18 01:36:14;;;;;;;14.20;2.88;;;;;;;13.00;80.66;100423.22;10310037;28;96692;-75
2023/03/18 01:41:17;;;;;;;;;;;;;;;13.01;81.16;100434.66;10337304;28;96848;-75
2023/03/18 01:46:33;;;;;;;13.98;2.90;;;;;;;12.99;80.45;100424.16;10338230;28;96769;-74
2023/03/18 01:51:40;;;;;;;15.55;2.88;;;;;;;12.98;80.45;100433.00;10305724;28;96680;-75
2023/03/18 01:56:46;;;;;;;13.27;2.25;;;;;;;13.04;80.40;100445.06;10295241;28;96943;-75
2023/03/18 02:01:53;;;;;;;13.02;3.08;;;;;;;13.06;79.99;100438.81;10294042;28;96776;-75
2023/03/18 02:07:00;;;;;;;11.25;3.33;;;;;;;13.02;80.46;100434.56;10300815;28;97531;-75
2023/03/18 02:12:03;;;;;;;9.18;2.50;;;;;;;12.93;80.28;100442.09;10336045;28;96732;-74
2023/03/18 02:17:11;;;;;;;13.60;2.95;;;;;;;12.86;80.78;100424.81;10335988;28;96681;-75
2023/03/18 02:22:23;;;;;;;8.77;2.78;;;;;;;12.79;80.24;100432.13;10331956;28;96949;-75
2023/03/18 02:27:31;;;;;;;13.98;3.22;;;;;;;12.63;80.92;100422.31;10294374;28;96703;-75
2023/03/18 02:32:35;;;;;;;16.23;2.95;;;;;;;12.64;81.01;100419.63;10293664;28;96780;-75
2023/03/18 02:37:39;;;;;;;12.73;3.00;;;;;;;12.72;80.47;100422.81;10304544;28;96627;-75
2023/03/18 02:42:44;;;;;;;8.98;2.55;;;;;;;12.78;80.53;100424.28;10333887;28;97903;-74
2023/03/18 02:47:49;;;;;;;13.55;2.70;;;;;;;12.74;80.90;100414.81;10335350;28;96659;-75
2023/03/18 02:52:52;;;;;;;121.73;9.07;;;;;;;12.60;80.93;100417.19;10334422;28;96698;-75
2023/03/18 02:57:56;;;;;;;58.13;5.30;;;;;;;12.53;81.38;100412.16;10317495;28;96956;-75
2023/03/18 03:03:00;;;;;;;57.30;4.57;;;;;;;12.45;81.46;100405.53;10292382;28;97012;-75
2023/03/18 03:08:04;;;;;;;11.88;2.90;;;;;;;12.57;81.38;100402.31;10307489;28;96677;-75
2023/03/18 03:13:10;;;;;;;12.18;3.10;;;;;;;12.59;81.31;100408.41;10331738;28;96662;-75
2023/03/18 03:18:14;;;;;;;9.60;2.80;;;;;;;12.65;81.06;100420.50;10292071;28;96683;-74
2023/03/18 03:23:17;;;;;;;38.15;3.65;;;;;;;12.59;81.35;100424.25;10293194;28;96563;-74
2023/03/18 03:28:22;;;;;;;39.58;3.80;;;;;;;12.51;82.12;100416.66;10293203;28;96654;-75
2023/03/18 03:33:26;;;;;;;9.00;2.85;;;;;;;12.58;81.61;100414.63;10293063;28;96602;-75
2023/03/18 03:38:29;;;;;;;12.80;2.53;;;;;;;12.57;81.42;100410.25;10308910;28;96733;-74
2023/03/18 03:43:34;;;;;;;7.53;2.25;;;;;;;12.58;81.51;100406.69;10332176;28;97811;-74
2023/03/18 03:48:38;;;;;;;10.60;2.22;;;;;;;12.73;81.62;100413.06;10318455;28;96653;-74
2023/03/18 03:53:42;;;;;;;26.52;3.88;;;;;;;12.59;81.79;100408.41;10329286;28;97538;-74
2023/03/18 03:58:47;;;;;;;10.57;3.13;;;;;;;12.70;81.33;100410.59;10332838;28;96871;-75
2023/03/18 04:03:50;;;;;;;10.13;2.85;;;;;;;12.74;81.33;100417.44;10332105;28;96775;-74
2023/03/18 04:08:54;;;;;;;7.85;2.50;;;;;;;12.74;81.39;100428.00;10294489;28;96626;-74
2023/03/18 04:13:58;;;;;;;7.72;2.40;;;;;;;12.74;81.26;100422.72;10332622;28;96530;-74
2023/03/18 04:19:02;;;;;;;38.58;3.40;;;;;;;12.73;81.60;100432.44;10333549;28;96677;-74
2023/03/18 04:24:06;;;;;;;8.15;2.22;;;;;;;12.68;81.62;100434.41;10305459;28;96651;-74
2023/03/18 04:29:11;;;;;;;15.33;2.97;;;;;;;12.64;81.55;100424.00;10295439;28;96787;-75
2023/03/18 04:34:14;;;;;;;26.83;3.30;;;;;;;12.75;81.56;100427.06;10297379;28;96708;-74
2023/03/18 04:39:18;;;;;;;5.63;1.52;;;;;;;12.79;81.56;100431.28;10309669;28;96982;-74
2023/03/18 04:44:23;;;;;;;3.72;1.80;;;;;;;12.76;81.51;100434.09;10297847;28;97871;-74
2023/03/18 04:49:26;;;;;;;;;;;;;;;12.70;81.49;100437.84;10298296;28;96702;-74
2023/03/18 04:54:29;;;;;;;11.00;2.45;;;;;;;12.60;81.32;100436.53;10297454;28;96808;-74
2023/03/18 04:59:34;;;;;;;10.55;2.25;;;;;;;12.63;82.14;100440.78;10298209;28;96888;-74
2023/03/18 05:04:37;;;;;;;56.22;5.30;;;;;;;12.62;81.47;100439.94;10296912;28;96760;-74
2023/03/18 05:09:42;;;;;;;137.35;9.90;;;;;;;12.44;82.48;100438.13;10307595;28;96821;-74
2023/03/18 05:14:47;;;;;;;28.38;4.13;;;;;;;12.35;82.58;100449.94;10314543;28;96773;-74
2023/03/18 05:19:50;;;;;;;19.10;4.05;;;;;;;12.47;82.13;100467.03;10296849;28;97258;-74
2023/03/18 05:24:54;;;;;;;19.85;4.15;;;;;;;12.37;82.03;100468.34;10295542;28;96728;-74
2023/03/18 05:29:59;;;;;;;12.13;3.25;;;;;;;12.45;81.97;100471.50;10296745;28;96854;-74
2023/03/18 05:35:04;;;;;;;16.17;3.28;;;;;;;12.41;82.54;100469.94;10296394;28;96833;-74
2023/03/18 05:40:10;;;;;;;11.98;3.47;;;;;;;12.50;82.11;100470.38;10310657;28;96731;-74
2023/03/18 05:45:15;;;;;;;11.68;3.17;;;;;;;12.55;81.98;100486.00;10337511;28;96669;-74
2023/03/18 05:50:27;;;;;;;8.05;2.40;;;;;;;12.56;82.40;100474.53;10300161;28;96936;-74
2023/03/18 05:55:31;;;;;;;9.82;2.50;;;;;;;12.64;82.04;100475.06;10295565;28;96691;-74
2023/03/18 06:00:37;;;;;;;12.30;3.23;;;;;;;12.54;82.32;100469.34;10295638;28;96696;-74
2023/03/18 06:05:40;;;;;;;10.60;3.38;;;;;;;12.69;81.59;100475.72;10295514;28;97264;-74
2023/03/18 06:10:44;;;;;;;11.38;2.85;;;;;;;12.72;81.66;100483.53;10313612;28;97220;-74
2023/03/18 06:15:49;;;;;;;14.13;3.65;;;;;;;12.69;82.08;100477.53;10335117;28;96768;-74
2023/03/18 06:20:52;;;;;;;10.82;3.33;;;;;;;12.59;82.02;100487.59;10327470;28;96709;-74
2023/03/18 06:25:56;;;;;;;10.27;3.42;;;;;;;12.62;82.15;100491.91;10293874;28;97171;-74
2023/03/18 06:31:01;;;;;;;7.18;2.65;;;;;;;12.60;82.60;100499.88;10294064;28;96700;-74
2023/03/18 06:36:05;;;;;;;10.25;3.22;;;;;;;12.65;81.86;100503.22;10294421;28;96680;-74
2023/03/18 06:41:09;;;;;;;13.60;3.30;;;;;;;12.69;82.22;100503.94;10328407;28;96806;-74
2023/03/18 06:46:14;;;;;;;10.07;2.67;;;;;;;12.63;82.15;100510.31;10335146;28;97316;-74
2023/03/18 06:51:17;;;;;;;53.15;5.10;;;;;;;12.53;82.15;100520.38;10334098;28;96717;-74
2023/03/18 06:56:20;;;;;;;10.65;3.35;;;;;;;12.42;83.28;100519.16;10313713;28;97292;-74
2023/03/18 07:01:25;;;;;;;14.02;2.95;;;;;;;12.51;82.79;100513.47;10292977;28;96800;-74
2023/03/18 07:06:30;;;;;;;10.18;2.60;;;;;;;12.59;82.50;100529.84;10292254;28;96870;-74
2023/03/18 07:11:33;;;;;;;13.00;2.75;;;;;;;12.58;82.76;100523.69;10312486;28;97049;-74
2023/03/18 07:16:38;;;;;;;16.90;2.63;;;;;;;12.67;82.34;100533.03;10293020;28;96789;-74
2023/03/18 07:21:42;;;;;;;14.77;2.88;;;;;;;12.77;82.28;100537.00;10292907;28;96761;-74
2023/03/18 07:26:46;;;;;;;19.07;3.47;;;;;;;12.85;82.73;100542.78;10292811;28;97060;-74
2023/03/18 07:31:50;;;;;;;17.52;3.00;;;;;;;12.87;82.71;100551.50;10293158;28;96861;-74
2023/03/18 07:36:53;;;;;;;31.15;4.03;;;;;;;12.77;82.69;100558.13;10292140;28;96700;-74
2023/03/18 07:41:57;;;;;;;13.57;3.22;;;;;;;12.74;82.81;100565.31;10314774;28;96568;-74
2023/03/18 07:47:02;;;;;;;5.80;2.40;;;;;;;12.80;82.43;100572.97;10332666;28;96625;-74
2023/03/18 07:52:05;;;;;;;9.55;2.70;;;;;;;12.98;82.36;100572.16;10333441;28;97059;-74
2023/03/18 07:57:10;;;;;;;10.02;2.50;;;;;;;13.06;82.15;100580.59;10331831;28;96624;-74
2023/03/18 08:02:15;;;;;;;9.38;2.97;;;;;;;13.03;82.30;100586.88;10330988;28;96889;-74
2023/03/18 08:07:19;;;;;;;13.45;3.03;;;;;;;13.15;82.57;100591.63;10332812;28;96640;-74
2023/03/18 08:12:22;;;;;;;12.35;3.08;;;;;;;13.14;82.53;100589.91;10332524;28;96716;-74
2023/03/18 08:17:27;;;;;;;14.95;3.40;;;;;;;13.28;82.52;100584.84;10332654;28;96738;-74
2023/03/18 08:22:30;;;;;;;12.63;2.72;;;;;;;13.27;82.46;100596.38;10301987;28;97137;-74
2023/03/18 08:27:33;;;;;;;8.43;2.30;;;;;;;13.38;82.16;100591.44;10290983;28;96699;-74
2023/03/18 08:32:38;;;;;;;5.60;2.03;;;;;;;13.34;82.56;100600.44;10291926;28;96834;-74
2023/03/18 08:37:41;;;;;;;7.97;2.50;;;;;;;13.36;83.28;100606.50;10291639;28;96643;-74
2023/03/18 08:42:45;;;;;;;10.00;2.20;;;;;;;13.29;83.19;100606.88;10319562;28;96723;-74
2023/03/18 08:47:50;;;;;;;8.48;2.03;;;;;;;13.27;83.51;100609.56;10330722;28;96770;-74
2023/03/18 08:52:53;;;;;;;5.13;1.42;;;;;;;13.39;83.09;100619.59;10330964;28;96696;-74
2023/03/18 08:57:57;;;;;;;5.95;1.98;;;;;;;13.51;82.92;100634.91;10331372;28;97298;-74
2023/03/18 09:03:02;;;;;;;6.78;2.20;;;;;;;13.49;83.11;100638.53;10330618;28;96704;-74
2023/03/18 09:08:05;;;;;;;;;;;;;;;13.49;83.59;100652.63;10331657;28;97257;-74
2023/03/18 09:13:09;;;;;;;8.60;2.40;;;;;;;13.65;82.95;100648.34;10330232;28;96890;-74
2023/03/18 09:18:13;;;;;;;7.40;1.70;;;;;;;13.61;83.16;100653.84;10337807;28;96841;-74
2023/03/18 09:23:17;;;;;;;4.20;1.58;;;;;;;13.51;82.97;100661.34;10338597;28;96683;-74
2023/03/18 09:28:20;;;;;;;5.07;1.73;;;;;;;13.67;81.95;100662.34;10325490;28;96610;-74
2023/03/18 09:33:25;;;;;;;4.68;1.30;;;;;;;13.95;81.40;100676.97;10296453;28;96769;-74
2023/03/18 09:38:28;;;;;;;5.57;1.50;;;;;;;14.24;80.67;100677.34;10295380;28;96613;-75
2023/03/18 09:43:56;;;;;;;5.22;1.40;;;;;;;14.33;79.73;100683.97;10316584;28;96716;-75
2023/03/18 09:49:28;;;;;;;3.78;1.02;;;;;;;14.40;79.17;100688.06;10295821;28;96926;-75
2023/03/18 09:54:38;;;;;;;3.25;1.30;;;;;;;14.17;80.13;100699.72;10329674;28;96791;-74
2023/03/18 09:59:45;;;;;;;5.50;1.70;;;;;;;14.05;80.80;100697.66;10336497;28;99725;-74
2023/03/18 10:04:55;;;;;;;4.88;1.20;;;;;;;14.09;80.96;100698.38;10303129;28;97020;-74
2023/03/18 10:10:02;;;;;;;5.38;1.73;;;;;;;14.25;81.23;100694.91;10295253;28;96629;-74
2023/03/18 10:15:15;;;;;;;7.18;2.65;;;;;;;14.59;80.63;100710.06;10316129;28;96824;-75
2023/03/18 10:20:27;;;;;;;5.22;2.97;;;;;;;14.76;79.87;100705.66;10315545;28;96641;-74
2023/03/18 10:25:36;;;;;;;7.05;2.90;;;;;;;15.40;78.66;100703.28;10294991;28;96822;-75
2023/03/18 10:30:53;;;;;;;4.53;1.98;;;;;;;17.77;73.06;100698.44;10293112;28;96727;-75
2023/03/18 10:36:05;;;;;;;4.25;1.85;;;;;;;17.46;70.57;100689.72;10294832;28;96799;-75
2023/03/18 10:41:16;;;;;;;3.88;2.47;;;;;;;17.71;70.04;100703.28;10295010;28;97043;-75
2023/03/18 10:46:21;;;;;;;4.53;2.45;;;;;;;17.98;69.35;100702.41;10335192;28;96804;-75
2023/03/18 10:51:35;;;;;;;6.43;3.25;;;;;;;18.79;65.24;100698.06;10335217;28;96678;-75
2023/03/18 10:56:38;;;;;;;3.55;2.30;;;;;;;17.88;67.29;100701.25;10295236;28;97203;-75
2023/03/18 11:01:44;;;;;;;4.07;1.55;;;;;;;17.08;68.49;100702.66;10293326;28;96661;-75
2023/03/18 11:06:53;;;;;;;2.92;1.50;;;;;;;16.40;69.77;100693.34;10294225;28;96589;-75
2023/03/18 11:11:58;;;;;;;2.88;1.50;;;;;;;16.28;70.76;100704.63;10293618;28;97851;-75
2023/03/18 11:17:04;;;;;;;3.58;1.60;;;;;;;15.87;72.04;100698.91;10328650;28;97523;-75
2023/03/18 11:22:19;;;;;;;3.30;1.55;;;;;;;15.36;73.07;100712.31;10333355;28;96677;-75
2023/03/18 11:27:26;;;;;;;4.82;2.15;;;;;;;15.44;73.82;100710.09;10321171;28;96698;-75
2023/03/18 11:32:32;;;;;;;5.25;1.77;;;;;;;15.57;74.04;100707.69;10292461;28;96574;-75
2023/03/18 11:37:40;;;;;;;4.60;1.95;;;;;;;16.87;70.17;100715.41;10292645;28;97048;-75
2023/03/18 11:42:44;;;;;;;4.05;1.10;;;;;;;19.41;63.57;100710.72;10293652;28;96784;-76
2023/03/18 11:47:48;;;;;;;4.70;1.73;;;;;;;19.99;62.58;100707.50;10332730;28;96818;-76
2023/03/18 11:52:59;;;;;;;3.97;1.10;;;;;;;20.16;60.57;100705.34;10333571;28;96910;-76
2023/03/18 11:58:35;;;;;;;3.30;1.30;;;;;;;19.93;58.73;100710.59;10333736;28;96898;-76
2023/03/18 12:03:58;;;;;;;4.38;1.20;;;;;;;18.63;61.14;100710.66;10325544;28;96692;-76
2023/03/18 12:09:09;;;;;;;3.25;1.20;;;;;;;17.32;65.12;100713.63;10332838;28;96564;-76
2023/03/18 12:14:20;;;;;;;3.80;1.45;;;;;;;17.58;66.44;100716.47;10331467;28;96943;-75
2023/03/18 12:19:41;;;;;;;4.38;1.40;;;;;;;17.82;66.64;100725.63;10311803;28;96905;-75
2023/03/18 12:25:02;;;;;;;4.07;1.40;;;;;;;18.36;63.56;100731.94;10290876;28;96763;-75
2023/03/18 12:30:21;;;;;;;2.70;1.20;;;;;;;18.05;63.32;100714.41;10290940;28;96899;-76
2023/03/18 12:35:38;;;;;;;4.47;1.67;;;;;;;17.35;65.33;100719.63;10292062;28;96779;-76
2023/03/18 12:40:59;;;;;;;3.75;1.48;;;;;;;16.16;68.90;100739.84;10291293;28;97109;-75
2023/03/18 12:46:10;;;;;;;4.22;1.70;;;;;;;15.77;70.93;100740.16;10306504;28;96804;-75
2023/03/18 12:51:18;;;;;;;3.83;1.55;;;;;;;16.61;69.47;100747.94;10335950;28;97392;-75
2023/03/18 12:56:26;;;;;;;4.40;1.60;;;;;;;16.68;69.51;100743.13;10338832;28;96878;-75
2023/03/18 13:01:37;;;;;;;2.22;1.00;;;;;;;16.41;69.76;100739.38;10338148;28;96841;-75
2023/03/18 13:06:44;;;;;;;3.00;1.13;;;;;;;18.63;64.74;100735.53;10337880;28;96679;-75
2023/03/18 13:12:00;;;;;;;1.85;0.80;;;;;;;19.62;60.12;100724.38;10305801;28;97105;-76
2023/03/18 13:17:04;;;;;;;1.77;0.68;;;;;;;19.63;60.97;100716.25;10333116;28;96840;-75
2023/03/18 13:22:24;;;;;;;1.83;1.10;;;;;;;18.87;61.72;100717.91;10325877;28;97852;-77
2023/03/18 13:27:44;;;;;;;1.30;0.80;;;;;;;18.63;62.54;100721.34;10327262;28;97471;-75
2023/03/18 13:33:02;;;;;;;3.00;0.90;;;;;;;17.48;65.84;100712.66;10334227;28;98449;-75
2023/03/18 13:38:26;;;;;;;3.65;1.00;;;;;;;17.39;66.80;100713.19;10343491;28;96899;-75
2023/03/18 13:43:33;;;;;;;2.60;0.93;;;;;;;17.11;67.27;100713.09;10337678;28;99354;-75
2023/03/18 13:48:40;;;;;;;1.92;1.25;;;;;;;17.46;66.86;100705.69;10354195;28;97547;-74
2023/03/18 13:53:44;;;;;;;3.55;1.27;;;;;;;17.70;65.88;100694.44;10333007;28;97704;-75
2023/03/18 13:58:51;;;;;;;3.22;1.05;;;;;;;17.98;65.24;100686.44;10329265;28;98235;-79
2023/03/18 14:03:56;;;;;;;3.50;1.23;;;;;;;17.15;66.38;100695.16;10340681;28;96954;-76
2023/03/18 14:09:34;;;;;;;2.45;1.50;;;;;;;17.39;67.24;100683.91;10336459;28;96642;-76
2023/03/18 14:15:01;;;;;;;6.15;2.03;;;;;;;18.24;63.64;100675.91;10333889;28;98904;-76
2023/03/18 14:20:22;;;;;;;6.40;2.63;;;;;;;17.61;64.99;100671.03;10330231;28;99238;-76
2023/03/18 14:25:40;;;;;;;5.18;1.85;;;;;;;19.44;61.74;100675.78;10334243;28;96804;-76
2023/03/18 14:30:48;;;;;;;3.00;1.08;;;;;;;20.08;58.67;100680.97;10330640;28;96985;-76
2023/03/18 14:35:57;;;;;;;4.65;1.10;;;;;;;19.73;59.58;100668.44;10335633;28;96802;-76
2023/03/18 14:41:03;;;;;;;3.95;1.50;;;;;;;20.58;57.23;100671.13;10333509;28;96935;-78
2023/03/18 14:46:17;;;;;;;13.15;6.80;;;;;;;21.15;55.03;100672.97;10331814;28;99326;-77
2023/03/18 14:51:22;;;;;;;4.43;2.70;;;;;;;21.05;55.28;100676.44;10331602;28;96892;-73
2023/03/18 14:56:29;;;;;;;4.65;2.40;;;;;;;20.15;56.54;100671.56;10339626;28;99553;-76
2023/03/18 15:01:37;;;;;;;4.22;1.55;;;;;;;20.78;56.06;100674.00;10364827;28;98544;-76
2023/03/18 15:06:41;;;;;;;4.72;2.17;;;;;;;20.23;56.88;100687.03;10330749;28;96797;-76
2023/03/18 15:11:46;;;;;;;2.60;1.58;;;;;;;19.40;58.70;100697.44;10328010;28;97488;-77
2023/03/18 15:16:53;;;;;;;5.03;2.33;;;;;;;18.47;61.37;100697.47;10315135;28;97272;-76
2023/03/18 15:22:02;;;;;;;8.07;4.60;;;;;;;18.66;61.06;100707.81;10344629;28;96884;-76
2023/03/18 15:27:11;;;;;;;7.32;4.57;;;;;;;18.59;61.13;100710.00;10336721;28;97916;-77
2023/03/18 15:32:20;;;;;;;4.65;2.38;;;;;;;18.06;62.86;100699.25;10323923;28;96936;-75
2023/03/18 15:37:41;;;;;;;5.32;2.75;;;;;;;18.37;62.70;100688.34;10317033;28;96865;-75
2023/03/18 15:42:44;;;;;;;6.93;3.72;;;;;;;18.46;61.82;100684.22;10319282;28;96743;-75
2023/03/18 15:47:49;;;;;;;6.70;2.63;;;;;;;18.28;62.08;100680.13;10330556;28;96814;-75
2023/03/18 15:53:01;;;;;;;;;;;;;;;18.54;61.34;100677.47;10331894;28;98563;-75
2023/03/18 15:58:18;;;;;;;3.75;2.10;;;;;;;18.30;62.33;100692.34;10328363;28;98066;-74
2023/03/18 16:03:24;;;;;;;5.35;2.80;;;;;;;17.97;62.86;100708.69;10326384;28;98394;-75
2023/03/18 16:08:28;;;;;;;4.03;2.17;;;;;;;17.49;64.44;100714.38;10328902;28;97519;-75
2023/03/18 16:13:34;;;;;;;4.85;2.13;;;;;;;17.59;63.47;100701.38;10331727;28;96813;-75
2023/03/18 16:18:39;;;;;;;5.53;2.20;;;;;;;17.75;63.43;100716.31;10331628;28;96897;-75
2023/03/18 16:23:42;;;;;;;6.43;2.33;;;;;;;17.51;63.53;100712.47;10331862;28;96833;-75
2023/03/18 16:28:47;;;;;;;6.78;3.88;;;;;;;17.34;64.04;100712.59;10338094;28;96913;-75
2023/03/18 16:33:54;;;;;;;4.88;1.98;;;;;;;17.16;64.43;100712.81;10334114;28;96939;-75
2023/03/18 16:38:58;;;;;;;5.28;2.20;;;;;;;17.42;64.85;100713.00;10339456;28;97450;-75
2023/03/18 16:44:01;;;;;;;5.55;1.70;;;;;;;17.25;63.94;100722.94;10342911;28;96900;-75
2023/03/18 16:49:06;;;;;;;8.40;3.42;;;;;;;17.17;64.65;100720.75;10322910;28;97220;-75
2023/03/18 16:54:17;;;;;;;8.18;2.85;;;;;;;16.96;65.00;100728.16;10332036;28;96799;-75
2023/03/18 16:59:21;;;;;;;6.03;2.75;;;;;;;16.87;65.80;100733.16;10335599;28;97625;-75
2023/03/18 17:04:28;;;;;;;6.55;2.20;;;;;;;17.05;65.33;100740.09;10334020;28;98490;-75
2023/03/18 17:09:32;;;;;;;6.00;2.00;;;;;;;16.97;65.67;100737.84;10335303;28;96922;-76
2023/03/18 17:14:38;;;;;;;6.07;1.98;;;;;;;16.82;65.65;100738.75;10338707;28;99161;-76
2023/03/18 17:19:43;;;;;;;6.82;2.33;;;;;;;16.87;65.74;100741.13;10334127;28;97979;-76
2023/03/18 17:24:46;;;;;;;6.68;2.80;;;;;;;16.68;65.51;100759.06;10344838;28;96933;-76
2023/03/18 17:29:50;;;;;;;10.05;2.75;;;;;;;16.61;66.14;100765.66;10331458;28;97036;-75
2023/03/18 17:34:55;;;;;;;5.28;2.35;;;;;;;16.57;65.92;100772.09;10330005;28;96830;-74
2023/03/18 17:39:58;;;;;;;5.72;2.15;;;;;;;16.51;66.78;100775.09;10336081;28;96880;-74
2023/03/18 17:45:06;;;;;;;3.45;1.80;;;;;;;16.39;66.74;100786.38;10296093;28;96704;-74
2023/03/18 17:50:13;;;;;;;3.63;1.73;;;;;;;16.26;66.72;100794.16;10295858;28;96773;-75
2023/03/18 17:55:19;;;;;;;5.70;2.13;;;;;;;16.05;66.91;100808.56;10295605;28;96707;-74
2023/03/18 18:00:26;;;;;;;6.53;2.63;;;;;;;15.98;67.47;100825.75;10324835;28;96820;-74
2023/03/18 18:05:30;;;;;;;5.80;2.63;;;;;;;16.05;67.53;100837.78;10336753;28;96680;-75
2023/03/18 18:10:34;;;;;;;6.25;2.22;;;;;;;16.07;67.45;100816.44;10336536;28;96559;-75
2023/03/18 18:15:37;;;;;;;5.22;2.13;;;;;;;15.96;67.47;100808.22;10327446;28;96797;-75
2023/03/18 18:20:42;;;;;;;6.07;1.95;;;;;;;15.89;67.74;100816.47;10335370;28;96655;-75
2023/03/18 18:25:45;;;;;;;4.10;2.25;;;;;;;15.62;67.84;100831.19;10336086;28;96659;-74
2023/03/18 18:30:49;;;;;;;4.43;2.33;;;;;;;15.55;67.93;100828.91;10335745;28;96765;-74
2023/03/18 18:35:54;;;;;;;5.65;2.13;;;;;;;15.48;67.58;100831.03;10335813;28;96653;-75
2023/03/18 18:40:59;;;;;;;3.58;1.50;;;;;;;15.41;67.95;100834.06;10335406;28;97042;-74
2023/03/18 18:46:02;;;;;;;3.85;1.63;;;;;;;15.36;68.52;100844.91;10334981;28;96623;-74
2023/03/18 18:51:14;;;;;;;3.60;1.67;;;;;;;15.39;68.59;100858.00;10335070;28;96666;-74
2023/03/18 18:56:21;;;;;;;5.53;2.10;;;;;;;15.31;68.80;100873.44;10334577;28;96756;-74
2023/03/18 19:01:25;;;;;;;5.63;2.20;;;;;;;15.29;69.17;100870.00;10334449;28;96931;-74
2023/03/18 19:06:31;;;;;;;4.13;1.98;;;;;;;15.21;69.28;100860.69;10319447;28;96691;-74
2023/03/18 19:11:35;;;;;;;5.68;1.75;;;;;;;15.11;69.17;100877.97;10293450;28;96818;-74
2023/03/18 19:16:38;;;;;;;3.67;1.70;;;;;;;14.97;69.71;100883.06;10321614;28;96879;-74
2023/03/18 19:21:43;;;;;;;4.50;2.13;;;;;;;14.86;69.93;100880.06;10334117;28;96683;-74
2023/03/18 19:26:46;;;;;;;7.75;2.53;;;;;;;14.88;69.87;100896.75;10333447;28;96689;-74
2023/03/18 19:31:50;;;;;;;6.25;2.35;;;;;;;15.01;69.82;100904.03;10328796;28;96961;-74
2023/03/18 19:36:55;;;;;;;6.97;2.22;;;;;;;15.02;69.93;100919.03;10342405;28;96820;-75
2023/03/18 19:41:58;;;;;;;8.15;2.60;;;;;;;15.09;70.02;100922.25;10321518;28;99693;-75
2023/03/18 19:47:02;;;;;;;12.35;4.85;;;;;;;14.88;71.10;100925.91;10331351;28;97006;-77
2023/03/18 19:52:16;;;;;;;18.37;12.03;;;;;;;14.79;71.44;100940.44;10350215;28;96740;-75
2023/03/18 19:57:23;;;;;;;11.20;6.22;;;;;;;14.78;71.46;100950.16;10333230;28;96886;-75
2023/03/18 20:02:28;;;;;;;9.45;4.50;;;;;;;14.73;71.79;100948.66;10338736;28;99324;-75
2023/03/18 20:07:33;;;;;;;10.43;3.78;;;;;;;14.84;71.56;100959.63;10354551;28;97210;-74
2023/03/18 20:12:38;;;;;;;8.57;4.13;;;;;;;14.74;71.64;100971.56;10335383;28;99060;-74
2023/03/18 20:17:42;;;;;;;10.30;4.10;;;;;;;14.72;72.28;100969.00;10344258;28;99301;-75
2023/03/18 20:22:51;;;;;;;7.93;4.35;;;;;;;14.58;72.56;100971.41;10347437;28;99458;-76
2023/03/18 20:27:55;;;;;;;10.70;4.90;;;;;;;14.51;73.19;100979.69;10327538;28;98479;-74
2023/03/18 20:32:59;;;;;;;9.90;4.50;;;;;;;14.49;73.47;100997.41;10332599;28;97680;-75
2023/03/18 20:38:10;;;;;;;9.38;4.53;;;;;;;14.49;73.50;101000.06;10335971;28;99343;-74
2023/03/18 20:43:15;;;;;;;11.55;4.85;;;;;;;14.49;73.96;101010.66;10332184;28;97265;-75
2023/03/18 20:48:18;;;;;;;9.77;4.22;;;;;;;14.46;73.88;101018.75;10321920;28;99222;-78
2023/03/18 20:53:26;;;;;;;8.07;4.57;;;;;;;14.39;74.13;101018.16;10349013;28;97138;-75
2023/03/18 20:58:29;;;;;;;9.60;4.25;;;;;;;14.33;74.61;101026.34;10332639;28;97641;-75
2023/03/18 21:03:34;;;;;;;7.47;3.67;;;;;;;14.30;74.35;101022.97;10344359;28;99570;-75
2023/03/18 21:08:39;;;;;;;10.32;4.22;;;;;;;14.23;74.58;101019.72;10336774;28;97345;-75
2023/03/18 21:13:43;;;;;;;11.38;3.92;;;;;;;14.28;74.33;101027.50;10339676;28;96816;-76
2023/03/18 21:18:47;;;;;;;8.85;3.63;;;;;;;14.23;74.35;101021.53;10334919;28;96722;-75
2023/03/18 21:23:53;;;;;;;8.68;3.08;;;;;;;14.15;74.44;101040.38;10337332;28;96820;-74
2023/03/18 21:28:57;;;;;;;9.45;3.15;;;;;;;14.12;74.60;101032.56;10343027;28;96913;-76
2023/03/18 21:34:01;;;;;;;10.18;3.00;;;;;;;14.11;74.62;101020.25;10345189;28;98135;-76
2023/03/18 21:39:06;;;;;;;6.07;2.72;;;;;;;14.11;74.28;101029.97;10345552;28;99366;-76
2023/03/18 21:44:11;;;;;;;8.77;3.25;;;;;;;14.04;74.34;101031.16;10346594;28;97265;-76
2023/03/18 21:49:14;;;;;;;11.38;7.93;;;;;;;13.84;75.46;101045.16;10342705;28;96880;-76
2023/03/18 21:54:19;;;;;;;9.02;4.00;;;;;;;13.81;75.64;101055.00;10349220;28;96748;-76
2023/03/18 21:59:23;;;;;;;7.10;3.78;;;;;;;13.87;75.50;101049.47;10349770;28;99766;-76
2023/03/18 22:04:26;;;;;;;7.03;3.85;;;;;;;13.64;75.89;101045.09;10334531;28;96827;-76
2023/03/18 22:09:30;;;;;;;8.05;3.38;;;;;;;13.47;76.27;101050.16;10336028;28;96664;-76
2023/03/18 22:14:34;;;;;;;6.55;3.40;;;;;;;13.44;76.32;101042.38;10323823;28;97473;-77
2023/03/18 22:19:37;;;;;;;8.05;3.75;;;;;;;13.34;76.46;101035.72;10340836;28;96858;-77
2023/03/18 22:24:42;;;;;;;9.35;3.90;;;;;;;13.37;76.05;101040.88;10362341;28;97113;-76
2023/03/18 22:29:45;;;;;;;6.20;4.47;;;;;;;13.44;76.13;101045.88;10349019;28;96891;-76
2023/03/18 22:34:49;;;;;;;8.80;4.47;;;;;;;13.64;75.83;101053.88;10356255;28;97126;-77
2023/03/18 22:39:54;;;;;;;8.82;3.28;;;;;;;13.61;76.39;101046.09;10354669;28;97579;-76
2023/03/18 22:44:57;;;;;;;6.45;3.60;;;;;;;13.58;76.42;101048.84;10356386;28;96817;-77
2023/03/18 22:50:00;;;;;;;10.30;3.58;;;;;;;13.61;76.08;101061.94;10361443;28;97341;-76
2023/03/18 22:55:16;;;;;;;8.82;3.80;;;;;;;13.67;76.10;101066.16;10355412;28;97386;-77
2023/03/18 23:00:24;;;;;;;7.72;3.72;;;;;;;13.73;75.77;101088.84;10341462;28;96908;-77
2023/03/18 23:05:28;;;;;;;7.32;3.80;;;;;;;13.79;75.77;101078.88;10332649;28;96811;-76
2023/03/18 23:10:33;;;;;;;5.93;3.55;;;;;;;13.65;76.11;101092.66;10348613;28;97710;-77
2023/03/18 23:15:36;;;;;;;7.90;3.78;;;;;;;13.77;75.93;101096.59;10336746;28;97238;-72
2023/03/18 23:20:39;;;;;;;10.50;3.90;;;;;;;13.86;75.57;101090.06;10332873;28;97446;-73
2023/03/18 23:25:46;;;;;;;9.75;4.28;;;;;;;13.84;75.52;101082.19;10333488;28;96832;-73